METAR AND TAF INFORMATION

METAR FOR TFFR
ADDS - METARS form results

(2246 UTC 12 April 2021)
Data provider http://aviationweather.gov/metar/data/
 
METAR text: TFFR 122230Z AUTO 12007KT 9999 BKN047 OVC054 26/22 Q1013 NOSIG
Conditions at: TFFR (LE RAIZET , GP) observed 2230 UTC 12 April 2021
Temperature: 26.0°C (79°F)
Dewpoint: 22.0°C (72°F) [RH = 79%]
Pressure (altimeter): 29.91 inches Hg (1013.0 mb)
Winds: from the ESE (120 degrees) at 8 MPH (7 knots; 3.6 m/s)
Visibility: 6 or more miles (10+ km)
Ceiling: 4700 feet AGL
Clouds: broken clouds at 4700 feet AGL
overcast cloud deck at 5400 feet AGL
Weather: no significant weather observed at this time

METAR text: TFFR 122200Z AUTO 12008KT 9999 FEW022 OVC052 26/22 Q1013 NOSIG
Conditions at: TFFR (LE RAIZET , GP) observed 2200 UTC 12 April 2021
Temperature: 26.0°C (79°F)
Dewpoint: 22.0°C (72°F) [RH = 79%]
Pressure (altimeter): 29.91 inches Hg (1013.0 mb)
Winds: from the ESE (120 degrees) at 9 MPH (8 knots; 4.1 m/s)
Visibility: 6 or more miles (10+ km)
Ceiling: 5200 feet AGL
Clouds: few clouds at 2200 feet AGL
overcast cloud deck at 5200 feet AGL
Weather: no significant weather observed at this time

Forecast for: TFFR (LE RAIZET , GP)
Text: TAF TFFR 121700Z 1218/1318 14010KT 9999 SCT030 BKN050
Forecast period: 1800 UTC 12 April 2021 to 1800 UTC 13 April 2021
Forecast type: FROM: standard forecast or significant change
Winds: from the SE (140 degrees) at 12 MPH (10 knots; 5.1 m/s)
Visibility: 6 or more miles (10+ km)
Ceiling: 5000 feet AGL
Clouds: scattered clouds at 3000 feet AGL
broken clouds at 5000 feet AGL
Weather: no significant weather forecast for this period
Text: TEMPO 1303/1318 4000 SHRA BKN018TCU BKN025
Forecast period: 0300 to 1800 UTC 13 April 2021
Forecast type: TEMPORARY: The following changes expected for less than half the time period
Visibility: 2.49 miles (4.01 km)
Ceiling: 1800 feet AGL
Clouds: broken clouds at 1800 feet AGL
broken clouds at 2500 feet AGL
Weather: SHRA  (rain showers)

 

AIRPORT MAP

 

RUNWAY INFORMATION

Runway 12 Runway length 11499 ft Runway width 148 ft
Runway elevation 5 ft Runway displaced threshold 1312 ft Runway heading 101
Runway 30 Runway length 11499 ft Runway width 148 ft
Runway elevation 32 ft Runway displaced threshold 820 ft Runway heading 281

 

AIRPORT FREQUENCIES

Type APP Name RAIZET APP Frequency 121.3 MHZ
Type ATIS Name ATIS Frequency 127.6 MHZ
Type GND Name GND Frequency 121.85 MHZ
Type TWR Name RAIZET TWR Frequency 118.4 MHZ

 

AIRPORT NEAR NAVIGATION AIDS

Type VOR-DME Name Pointe A Pitre Frequency 112900 KHZ
Type NDB Name Pointe A Pitre Frequency 385 KHZ